Terminal Aerodrome Forecast
Issued by NWS

Home | Current Version | Previous Version | Text Only | Print | Product List | Glossary On
Versions: 1 2 3 4 5 6 7 8 9 10 11 12 13 14 15 16 17
320
FTUS45 KRIW 131120
TAFJAC
TAF
KJAC 131120Z 1312/1412 VRB05KT P6SM SCT060 BKN090
     FM131600 19012G18KT P6SM VCSH SCT035 BKN060
     FM131900 20017G25KT P6SM VCSH SCT025 BKN050 WS018/25040KT
     FM140100 19010KT P6SM VCSH SCT025 BKN040
      AMD LTD TO CLD VIS AND WIND=

USA.gov is the U.S. government's official web portal to all federal, state and local government web resources and services.